Time;durP1;ratioP1;P1;durP2;ratioP2;P2;SDS_P1;SDS_P2;PMS_P1;PMS_P2;Temp;Humidity;BMP_temperature;BMP_pressure;BME280_temperature;BME280_humidity;BME280_pressure;Samples;Min_cycle;Max_cycle;Signal;HPM_P1;HPM_P2
2022/01/22 00:01:58;;;;;;;33.80;16.75;;;6.50;99.90;;;;;;5040573;28;20049;-75
2022/01/22 00:04:24;;;;;;;31.02;16.00;;;6.50;99.90;;;;;;5036386;28;20025;-75
2022/01/22 00:06:51;;;;;;;31.20;16.27;;;6.50;99.90;;;;;;5041292;28;20022;-75
2022/01/22 00:09:18;;;;;;;30.80;16.67;;;6.50;99.90;;;;;;5044216;28;20108;-75
2022/01/22 00:11:52;;;;;;;35.03;15.77;;;6.50;99.90;;;;;;5038272;28;20033;-75
2022/01/22 00:14:24;;;;;;;31.95;15.70;;;6.50;99.90;;;;;;5042620;28;20470;-75
2022/01/22 00:16:55;;;;;;;30.08;15.20;;;6.50;99.90;;;;;;5039173;28;20021;-74
2022/01/22 00:19:21;;;;;;;33.53;16.02;;;6.50;99.90;;;;;;5030996;28;20026;-75
2022/01/22 00:21:46;;;;;;;32.25;15.65;;;6.60;99.90;;;;;;5044810;28;20037;-74
2022/01/22 00:24:13;;;;;;;28.55;15.52;;;6.60;99.90;;;;;;5045935;28;20028;-74
2022/01/22 00:26:39;;;;;;;32.70;16.23;;;6.50;99.90;;;;;;5039493;28;20032;-74
2022/01/22 00:29:05;;;;;;;26.80;15.00;;;6.60;99.90;;;;;;5038977;28;20378;-75
2022/01/22 00:31:31;;;;;;;33.22;14.35;;;6.50;99.90;;;;;;5037003;28;20021;-75
2022/01/22 00:33:56;;;;;;;28.75;15.80;;;6.50;99.90;;;;;;5041417;28;20029;-75
2022/01/22 00:36:22;;;;;;;27.10;13.73;;;6.50;99.90;;;;;;5044473;28;20027;-74
2022/01/22 00:38:47;;;;;;;30.33;15.00;;;6.60;99.90;;;;;;5048304;28;20036;-75
2022/01/22 00:41:13;;;;;;;24.15;15.05;;;6.60;99.90;;;;;;5044371;28;20437;-74
2022/01/22 00:43:39;;;;;;;27.75;13.98;;;6.60;99.90;;;;;;5048999;28;20492;-74
2022/01/22 00:46:04;;;;;;;22.65;14.18;;;6.70;99.90;;;;;;5043860;28;20040;-75
2022/01/22 00:48:30;;;;;;;30.02;16.23;;;6.60;99.90;;;;;;5038468;28;20029;-74
2022/01/22 00:50:57;;;;;;;31.48;15.98;;;6.60;99.90;;;;;;5041073;28;20021;-75
2022/01/22 00:53:25;;;;;;;27.63;15.13;;;6.50;99.90;;;;;;5045897;28;20036;-74
2022/01/22 00:55:50;;;;;;;28.27;16.25;;;6.50;99.90;;;;;;5038145;28;20022;-75
2022/01/22 00:58:16;;;;;;;34.72;16.73;;;6.60;99.90;;;;;;5042768;28;20040;-74
2022/01/22 01:00:42;;;;;;;30.70;17.10;;;6.50;99.90;;;;;;5044007;28;20037;-75
2022/01/22 01:03:08;;;;;;;26.75;15.38;;;6.50;99.90;;;;;;5041927;28;20037;-75
2022/01/22 01:05:34;;;;;;;26.90;16.63;;;6.50;99.90;;;;;;5039555;28;20033;-75
2022/01/22 01:08:00;;;;;;;37.55;18.83;;;6.60;99.90;;;;;;5043026;28;20041;-75
2022/01/22 01:10:26;;;;;;;26.65;16.75;;;6.50;99.90;;;;;;5039880;28;20029;-75
2022/01/22 01:12:52;;;;;;;25.85;16.35;;;6.50;99.90;;;;;;5043087;28;20076;-75
2022/01/22 01:34:20;;;;;;;28.25;16.58;;;6.60;99.90;;;;;;5040767;28;20091;-74
2022/01/22 01:36:47;;;;;;;27.63;15.73;;;6.60;99.90;;;;;;5046643;28;20079;-75
2022/01/22 01:39:23;;;;;;;27.92;14.75;;;6.60;99.90;;;;;;5040376;28;20026;-74
2022/01/22 01:42:12;;;;;;;32.20;16.77;;;6.60;99.90;;;;;;5043004;28;20136;-74
2022/01/22 01:44:39;;;;;;;31.42;16.10;;;6.60;99.90;;;;;;5041243;28;20048;-75
2022/01/22 01:47:08;;;;;;;32.75;16.50;;;6.60;99.90;;;;;;5042346;28;20446;-75
2022/01/22 01:49:34;;;;;;;30.85;15.80;;;6.60;99.90;;;;;;5042963;28;20477;-75
2022/01/22 01:52:03;;;;;;;27.48;15.80;;;6.60;99.90;;;;;;5038973;28;20079;-74
2022/01/22 01:59:51;;;;;;;32.55;16.45;;;6.60;99.90;;;;;;5040409;28;20048;-74
2022/01/22 02:02:18;;;;;;;26.35;16.20;;;6.50;99.90;;;;;;5039443;28;20044;-74
2022/01/22 02:04:44;;;;;;;30.05;17.27;;;6.60;99.90;;;;;;5043341;28;20021;-74
2022/01/22 02:07:10;;;;;;;25.25;15.77;;;6.60;99.90;;;;;;5042958;28;20037;-74
2022/01/22 02:09:38;;;;;;;29.10;16.77;;;6.60;99.90;;;;;;5035303;28;20024;-75
2022/01/22 02:12:20;;;;;;;33.83;17.35;;;6.60;99.90;;;;;;5032272;28;20047;-74
2022/01/22 02:25:43;;;;;;;31.27;18.73;;;6.50;99.90;;;;;;5041128;28;20032;-75
2022/01/22 02:28:10;;;;;;;34.33;18.58;;;6.60;99.90;;;;;;5035059;28;20041;-75
2022/01/22 02:30:40;;;;;;;27.45;17.50;;;6.60;99.90;;;;;;5037691;28;20032;-75
2022/01/22 02:35:42;;;;;;;31.13;17.95;;;6.60;99.90;;;;;;5042190;28;20056;-75
2022/01/22 02:38:15;;;;;;;35.63;19.20;;;6.60;99.90;;;;;;5037758;28;20028;-75
2022/01/22 02:40:48;;;;;;;36.92;19.10;;;6.70;99.90;;;;;;5037522;28;20107;-75
2022/01/22 02:43:15;;;;;;;36.05;19.50;;;6.70;99.90;;;;;;5042484;28;20040;-75
2022/01/22 02:45:43;;;;;;;31.45;19.30;;;6.70;99.90;;;;;;5035302;28;20103;-75
2022/01/22 02:48:10;;;;;;;34.85;20.08;;;6.60;99.90;;;;;;5040803;28;20018;-75
2022/01/22 02:50:36;;;;;;;43.00;20.95;;;6.60;99.90;;;;;;5040828;28;20030;-75
2022/01/22 02:53:07;;;;;;;36.70;21.08;;;6.70;99.90;;;;;;5036903;28;20025;-75
2022/01/22 02:55:34;;;;;;;35.20;21.10;;;6.70;99.90;;;;;;5044390;28;20033;-75
2022/01/22 02:58:00;;;;;;;38.25;22.15;;;6.60;99.90;;;;;;5041312;28;20037;-75
2022/01/22 03:00:26;;;;;;;40.42;23.15;;;6.70;99.90;;;;;;5042416;28;20053;-75
2022/01/22 03:02:52;;;;;;;40.60;24.10;;;6.70;99.90;;;;;;5040369;28;20433;-75
2022/01/22 03:05:19;;;;;;;39.83;24.38;;;6.70;99.90;;;;;;5039468;28;20029;-75
2022/01/22 03:07:50;;;;;;;44.05;24.05;;;6.70;99.90;;;;;;5044175;28;20026;-75
2022/01/22 03:10:19;;;;;;;42.25;24.92;;;6.60;99.90;;;;;;5038941;28;20474;-74
2022/01/22 03:17:58;;;;;;;43.03;26.10;;;6.50;99.90;;;;;;5036988;28;20033;-75
2022/01/22 03:23:09;;;;;;;51.78;27.77;;;6.60;99.90;;;;;;5040488;28;20458;-75
2022/01/22 03:28:23;;;;;;;52.17;30.50;;;6.70;99.90;;;;;;5042973;28;20044;-74
2022/01/22 03:30:50;;;;;;;55.42;30.45;;;6.70;99.90;;;;;;5038865;28;20037;-74
2022/01/22 03:33:19;;;;;;;57.58;30.67;;;6.70;99.90;;;;;;5048329;28;20382;-74
2022/01/22 03:35:50;;;;;;;49.50;29.70;;;6.80;99.90;;;;;;5042347;28;20018;-75
2022/01/22 03:38:16;;;;;;;51.25;30.08;;;6.80;99.90;;;;;;5038177;28;20026;-75
2022/01/22 03:40:41;;;;;;;57.53;31.52;;;6.80;99.90;;;;;;5046149;28;20041;-74
2022/01/22 03:43:07;;;;;;;53.58;29.63;;;6.80;99.90;;;;;;5043624;28;20037;-74
2022/01/22 03:45:33;;;;;;;58.63;33.22;;;6.80;99.90;;;;;;5047215;28;20060;-74
2022/01/22 03:47:58;;;;;;;57.17;33.30;;;6.70;99.90;;;;;;5043748;28;20101;-75
2022/01/22 03:50:24;;;;;;;60.33;32.83;;;6.80;99.90;;;;;;5040254;28;20762;-75
2022/01/22 03:52:50;;;;;;;56.50;32.95;;;6.80;99.90;;;;;;5046062;28;20037;-75
2022/01/22 03:55:32;;;;;;;51.15;30.77;;;6.70;99.90;;;;;;5041887;28;20387;-75
2022/01/22 03:57:57;;;;;;;54.05;29.15;;;6.70;99.90;;;;;;5043778;28;20102;-75
2022/01/22 04:00:23;;;;;;;57.38;31.13;;;6.70;99.90;;;;;;5048638;28;20033;-75
2022/01/22 04:05:20;;;;;;;53.63;31.92;;;6.80;99.90;;;;;;5045374;28;20033;-74
2022/01/22 04:10:48;;;;;;;48.42;29.02;;;6.70;99.90;;;;;;5028139;28;20026;-75
2022/01/22 04:13:16;;;;;;;58.63;31.15;;;6.70;99.90;;;;;;5042333;28;20037;-75
2022/01/22 04:15:42;;;;;;;55.42;32.10;;;6.70;99.90;;;;;;5043209;28;20025;-75
2022/01/22 04:28:56;;;;;;;61.38;34.95;;;6.60;99.90;;;;;;5037009;28;20033;-75
2022/01/22 04:31:22;;;;;;;55.75;34.50;;;6.60;99.90;;;;;;5037865;28;20064;-75
2022/01/22 04:33:48;;;;;;;59.65;33.85;;;6.70;99.90;;;;;;5047122;28;20029;-75
2022/01/22 04:36:14;;;;;;;65.75;35.45;;;6.80;99.90;;;;;;5047359;28;20032;-74
2022/01/22 04:38:39;;;;;;;64.30;36.55;;;6.70;99.90;;;;;;5039553;28;20450;-75
2022/01/22 04:41:05;;;;;;;68.53;35.30;;;6.80;99.90;;;;;;5044443;28;20638;-75
2022/01/22 04:43:34;;;;;;;61.65;34.17;;;6.70;99.90;;;;;;5047403;28;20091;-74
2022/01/22 04:46:20;;;;;;;64.50;35.00;;;6.80;99.90;;;;;;5046846;28;20489;-75
2022/01/22 04:48:54;;;;;;;62.63;35.78;;;6.70;99.90;;;;;;5039842;28;20021;-75
2022/01/22 04:56:51;;;;;;;72.95;37.58;;;6.70;99.90;;;;;;5051677;28;20502;-74
2022/01/22 04:59:17;;;;;;;70.50;34.08;;;6.70;99.90;;;;;;5046507;28;20091;-74
2022/01/22 05:01:42;;;;;;;68.75;37.97;;;6.60;99.90;;;;;;5037239;28;20043;-74
2022/01/22 05:04:08;;;;;;;71.45;39.28;;;6.70;99.90;;;;;;5049518;28;20366;-74
2022/01/22 05:06:33;;;;;;;65.40;35.08;;;6.70;99.90;;;;;;5039560;28;20018;-74
2022/01/22 05:09:00;;;;;;;69.13;35.67;;;6.80;99.90;;;;;;5044252;28;20040;-75
2022/01/22 05:11:25;;;;;;;70.03;37.38;;;6.80;99.90;;;;;;5039598;28;20013;-75
2022/01/22 05:13:51;;;;;;;61.28;33.97;;;6.80;99.90;;;;;;5042474;28;20369;-74
2022/01/22 05:16:18;;;;;;;68.38;36.05;;;6.80;99.90;;;;;;5043827;28;20059;-74
2022/01/22 05:18:52;;;;;;;76.93;37.45;;;6.90;99.90;;;;;;5045318;28;20021;-74
2022/01/22 05:21:19;;;;;;;67.85;37.50;;;6.90;99.90;;;;;;5040025;28;20064;-74
2022/01/22 05:23:46;;;;;;;69.93;37.72;;;6.90;99.90;;;;;;5035919;28;20028;-75
2022/01/22 05:37:02;;;;;;;66.43;38.15;;;6.90;99.90;;;;;;5044172;28;20034;-75
2022/01/22 05:39:30;;;;;;;60.10;34.03;;;6.90;99.90;;;;;;5041010;28;20034;-75
2022/01/22 05:41:58;;;;;;;68.00;36.38;;;6.90;99.90;;;;;;5041531;28;20474;-75
2022/01/22 05:44:24;;;;;;;77.13;38.33;;;6.90;99.90;;;;;;5042542;28;20029;-74
2022/01/22 05:46:52;;;;;;;68.93;37.33;;;6.80;99.90;;;;;;5037601;28;20421;-75
2022/01/22 05:49:21;;;;;;;62.72;36.95;;;6.90;99.90;;;;;;5041700;28;20366;-75
2022/01/22 05:51:48;;;;;;;72.20;37.85;;;6.90;99.90;;;;;;5043515;28;20018;-75
2022/01/22 05:59:36;;;;;;;69.80;36.92;;;7.00;99.90;;;;;;5041224;28;20036;-75
2022/01/22 06:02:16;;;;;;;65.55;36.97;;;6.90;99.90;;;;;;5042700;28;20033;-75
2022/01/22 06:04:44;;;;;;;66.07;35.17;;;6.90;99.90;;;;;;5036243;28;20110;-75
2022/01/22 06:07:11;;;;;;;68.45;37.03;;;7.00;99.90;;;;;;5042230;28;20025;-75
2022/01/22 06:09:43;;;;;;;66.60;37.05;;;6.90;99.90;;;;;;5043799;28;20028;-75
2022/01/22 06:14:35;;;;;;;68.78;37.05;;;7.00;99.90;;;;;;5042846;28;20051;-75
2022/01/22 06:17:02;;;;;;;72.40;37.38;;;7.00;99.90;;;;;;5036591;28;20541;-75
2022/01/22 06:19:28;;;;;;;60.95;35.35;;;7.10;99.90;;;;;;5036069;28;20012;-74
2022/01/22 06:21:54;;;;;;;70.03;38.40;;;7.00;99.90;;;;;;5044013;28;20469;-74
2022/01/22 06:24:20;;;;;;;63.53;35.75;;;7.00;99.90;;;;;;5036022;28;20055;-75
2022/01/22 06:26:46;;;;;;;63.33;36.33;;;7.00;99.90;;;;;;5045356;28;20094;-74
2022/01/22 06:29:12;;;;;;;65.07;37.20;;;7.00;99.90;;;;;;5038304;28;20097;-75
2022/01/22 06:31:38;;;;;;;72.13;37.67;;;7.00;99.90;;;;;;5039973;28;20377;-75
2022/01/22 06:34:05;;;;;;;66.18;33.92;;;7.00;99.90;;;;;;5042615;28;20063;-73
2022/01/22 06:36:31;;;;;;;65.75;36.00;;;7.00;99.90;;;;;;5043597;28;20390;-75
2022/01/22 06:39:09;;;;;;;66.10;35.47;;;7.00;99.90;;;;;;5037732;28;20376;-75
2022/01/22 06:41:45;;;;;;;64.75;33.92;;;7.00;99.90;;;;;;5036113;28;20037;-75
2022/01/22 06:44:19;;;;;;;61.30;33.75;;;7.00;99.90;;;;;;5035569;28;20021;-75
2022/01/22 06:46:47;;;;;;;69.10;36.08;;;7.00;99.90;;;;;;5041675;28;20029;-76
2022/01/22 06:49:13;;;;;;;62.50;34.97;;;7.10;99.90;;;;;;5041694;28;20025;-75
2022/01/22 06:51:39;;;;;;;66.10;35.03;;;7.00;99.90;;;;;;5044387;28;20040;-75
2022/01/22 06:54:06;;;;;;;66.32;34.55;;;7.00;99.90;;;;;;5037771;28;20013;-75
2022/01/22 06:56:32;;;;;;;58.75;33.78;;;7.00;99.90;;;;;;5033046;28;20021;-74
2022/01/22 06:58:59;;;;;;;63.28;33.47;;;7.00;99.90;;;;;;5039363;28;20048;-75
2022/01/22 07:01:26;;;;;;;59.22;33.20;;;7.00;99.90;;;;;;5037814;28;20493;-75
2022/01/22 07:03:52;;;;;;;63.58;34.90;;;7.00;99.90;;;;;;5040123;28;20027;-75
2022/01/22 07:06:18;;;;;;;61.97;33.30;;;7.00;99.90;;;;;;5034774;28;20379;-75
2022/01/22 07:08:43;;;;;;;67.00;33.63;;;7.00;99.90;;;;;;5038991;28;20034;-75
2022/01/22 07:11:09;;;;;;;69.18;34.72;;;7.00;99.90;;;;;;5037316;28;20033;-74
2022/01/22 07:13:35;;;;;;;62.08;33.92;;;7.00;99.90;;;;;;5040575;28;20705;-75
2022/01/22 07:16:00;;;;;;;61.35;30.85;;;7.00;99.90;;;;;;5032492;28;20030;-72
2022/01/22 07:18:28;;;;;;;60.38;33.22;;;7.00;99.90;;;;;;5038550;28;20025;-75
2022/01/22 07:20:54;;;;;;;64.03;33.38;;;7.10;99.90;;;;;;5043031;28;20035;-75
2022/01/22 07:25:46;;;;;;;61.60;34.80;;;7.10;99.90;;;;;;5044115;28;20033;-75
2022/01/22 07:28:12;;;;;;;73.07;34.67;;;7.20;99.90;;;;;;5037427;28;20037;-74
2022/01/22 07:30:39;;;;;;;61.80;32.45;;;7.20;99.90;;;;;;5040644;28;20018;-74
2022/01/22 07:33:05;;;;;;;58.67;33.10;;;7.20;99.90;;;;;;5039881;28;20029;-75
2022/01/22 07:35:34;;;;;;;57.63;33.10;;;7.20;99.90;;;;;;5034484;28;20017;-74
2022/01/22 07:38:03;;;;;;;58.92;33.53;;;7.20;99.90;;;;;;5035526;28;20463;-75
2022/01/22 07:40:29;;;;;;;57.20;32.85;;;7.20;99.90;;;;;;5031576;28;20021;-74
2022/01/22 07:42:55;;;;;;;60.75;32.95;;;7.20;99.90;;;;;;5038269;28;20502;-74
2022/01/22 07:45:21;;;;;;;63.60;34.70;;;7.30;99.90;;;;;;5034396;28;20064;-74
2022/01/22 07:47:47;;;;;;;58.90;32.25;;;7.30;99.90;;;;;;5039584;28;20099;-75
2022/01/22 07:50:12;;;;;;;66.00;34.92;;;7.30;99.90;;;;;;5031727;28;20057;-74
2022/01/22 07:52:38;;;;;;;60.75;32.70;;;7.30;99.90;;;;;;5053147;28;20049;-74
2022/01/22 07:55:06;;;;;;;63.63;33.60;;;7.40;99.90;;;;;;5027252;28;20030;-75
2022/01/22 07:57:32;;;;;;;62.40;33.58;;;7.40;99.90;;;;;;5036924;28;20039;-74
2022/01/22 07:59:58;;;;;;;61.35;32.85;;;7.40;99.90;;;;;;5029109;28;20171;-75
2022/01/22 08:02:24;;;;;;;64.38;33.03;;;7.40;99.90;;;;;;5030281;28;20541;-74
2022/01/22 08:04:50;;;;;;;63.10;34.08;;;7.30;99.90;;;;;;5037261;28;20013;-74
2022/01/22 08:07:16;;;;;;;64.43;33.30;;;7.30;99.90;;;;;;5040505;28;20029;-74
2022/01/22 08:09:43;;;;;;;67.13;33.35;;;7.30;99.90;;;;;;5037725;28;20470;-75
2022/01/22 08:12:09;;;;;;;73.85;36.13;;;7.40;99.90;;;;;;5036069;28;20021;-74
2022/01/22 08:14:35;;;;;;;69.55;34.38;;;7.30;99.90;;;;;;5041459;28;20025;-74
2022/01/22 08:17:01;;;;;;;67.80;32.85;;;7.30;99.90;;;;;;5036739;28;20025;-74
2022/01/22 08:19:26;;;;;;;73.25;35.65;;;7.30;99.90;;;;;;5035290;28;20034;-74
2022/01/22 08:21:53;;;;;;;73.63;36.55;;;7.20;99.90;;;;;;5030972;28;20452;-74
2022/01/22 08:24:22;;;;;;;70.97;36.22;;;7.20;99.90;;;;;;5034190;28;20022;-74
2022/01/22 08:27:03;;;;;;;68.55;34.50;;;7.20;99.90;;;;;;5028792;28;20504;-74
2022/01/22 08:29:28;;;;;;;84.80;40.55;;;7.20;99.90;;;;;;5031695;28;20030;-73
2022/01/22 08:32:22;;;;;;;77.05;38.28;;;7.30;99.90;;;;;;5037152;28;20474;-73
2022/01/22 08:37:33;;;;;;;83.35;40.55;;;7.30;99.90;;;;;;5041080;28;20084;-73
2022/01/22 08:40:00;;;;;;;77.03;38.42;;;7.30;99.90;;;;;;5038363;28;20049;-73
2022/01/22 08:42:27;;;;;;;82.85;39.95;;;7.30;99.90;;;;;;5033322;28;20034;-73
2022/01/22 08:44:53;;;;;;;84.47;41.45;;;7.30;99.90;;;;;;5031059;28;20079;-72
2022/01/22 08:47:19;;;;;;;86.45;43.22;;;7.30;99.90;;;;;;5035436;28;20029;-74
2022/01/22 08:49:44;;;;;;;84.90;40.13;;;7.30;99.90;;;;;;5034517;28;20550;-73
2022/01/22 08:52:13;;;;;;;88.45;40.10;;;7.40;99.90;;;;;;5039659;28;20018;-73
2022/01/22 08:54:39;;;;;;;77.43;41.42;;;7.40;99.90;;;;;;5039543;28;20076;-73
2022/01/22 08:57:05;;;;;;;84.60;41.50;;;7.40;99.90;;;;;;5040682;28;20104;-74
2022/01/22 08:59:31;;;;;;;81.13;40.75;;;7.40;99.90;;;;;;5035397;28;20037;-74
2022/01/22 09:01:58;;;;;;;80.05;40.00;;;7.50;99.90;;;;;;5039371;28;20466;-73
2022/01/22 09:04:23;;;;;;;79.45;39.35;;;7.60;99.90;;;;;;5038052;28;20671;-73
2022/01/22 09:06:49;;;;;;;82.63;38.90;;;7.60;99.90;;;;;;5031706;28;20053;-74
2022/01/22 09:09:15;;;;;;;80.65;41.20;;;7.60;99.90;;;;;;5039601;28;20029;-73
2022/01/22 09:11:43;;;;;;;84.57;41.55;;;7.60;99.90;;;;;;5039815;28;20022;-74
2022/01/22 09:14:11;;;;;;;76.75;39.65;;;7.70;99.90;;;;;;5042256;28;20112;-74
2022/01/22 09:16:38;;;;;;;76.75;40.97;;;7.70;99.90;;;;;;5036848;28;20026;-74
2022/01/22 09:19:10;;;;;;;75.95;39.78;;;7.70;99.90;;;;;;5040356;28;20028;-75
2022/01/22 09:21:38;;;;;;;73.75;40.30;;;7.70;99.90;;;;;;5042100;28;20036;-74
2022/01/22 09:24:05;;;;;;;72.60;40.53;;;7.80;99.90;;;;;;5037153;28;20060;-74
2022/01/22 09:26:31;;;;;;;76.65;39.92;;;7.80;99.90;;;;;;5034380;28;20044;-74
2022/01/22 09:29:00;;;;;;;78.68;38.78;;;7.70;99.90;;;;;;5043120;28;20386;-74
2022/01/22 09:31:27;;;;;;;78.80;40.72;;;7.70;99.90;;;;;;5035755;28;20064;-75
2022/01/22 09:33:56;;;;;;;78.47;39.05;;;7.80;99.90;;;;;;5035846;28;20080;-74
2022/01/22 09:36:22;;;;;;;80.72;41.60;;;7.70;99.90;;;;;;5039995;28;20044;-74
2022/01/22 09:38:48;;;;;;;73.82;38.00;;;7.80;99.90;;;;;;5036758;28;20474;-74
2022/01/22 09:41:18;;;;;;;76.28;41.03;;;7.70;99.90;;;;;;5035177;28;20068;-75
2022/01/22 09:43:44;;;;;;;75.13;42.05;;;7.80;99.90;;;;;;5042155;28;20112;-75
2022/01/22 09:46:10;;;;;;;75.35;41.15;;;7.80;99.90;;;;;;5045471;28;20062;-74
2022/01/22 09:48:47;;;;;;;79.13;42.05;;;7.80;99.90;;;;;;5041369;28;20028;-75
2022/01/22 09:51:14;;;;;;;84.35;42.05;;;7.80;99.90;;;;;;5038865;28;20067;-74
2022/01/22 09:53:40;;;;;;;69.38;38.28;;;7.80;99.90;;;;;;5043275;28;20471;-75
2022/01/22 09:56:07;;;;;;;67.57;37.30;;;7.90;99.90;;;;;;5037645;28;20064;-75
2022/01/22 09:58:33;;;;;;;63.25;35.40;;;7.90;99.90;;;;;;5042864;28;20037;-74
2022/01/22 10:01:27;;;;;;;67.00;33.25;;;7.90;99.90;;;;;;5041302;28;20033;-74
2022/01/22 10:03:55;;;;;;;71.45;37.22;;;7.90;99.90;;;;;;5041218;28;20707;-74
2022/01/22 10:06:26;;;;;;;67.38;33.78;;;7.90;99.90;;;;;;5044380;28;20035;-74
2022/01/22 10:09:04;;;;;;;64.72;34.60;;;8.00;99.90;;;;;;5041840;28;20359;-74
2022/01/22 10:11:29;;;;;;;64.65;35.75;;;8.00;99.90;;;;;;5040567;28;20124;-73
2022/01/22 10:13:59;;;;;;;63.92;35.53;;;8.10;99.90;;;;;;5034670;28;20072;-73
2022/01/22 10:16:27;;;;;;;63.17;31.95;;;8.10;99.90;;;;;;5032821;28;20124;-73
2022/01/22 10:19:12;;;;;;;57.33;32.47;;;8.10;99.90;;;;;;5039395;28;20079;-73
2022/01/22 10:21:45;;;;;;;63.83;32.72;;;8.10;99.90;;;;;;5040563;28;20041;-73
2022/01/22 10:24:29;;;;;;;59.97;34.78;;;8.10;99.90;;;;;;5041450;28;20377;-74
2022/01/22 10:27:24;;;;;;;56.05;32.35;;;8.20;99.90;;;;;;5041299;28;20065;-74
2022/01/22 10:29:58;;;;;;;55.90;32.20;;;8.20;99.90;;;;;;5043401;28;20127;-74
2022/01/22 10:35:15;;;;;;;60.35;32.13;;;8.10;99.90;;;;;;5044207;28;20041;-74
2022/01/22 10:37:41;;;;;;;51.95;28.35;;;8.20;99.90;;;;;;5038289;28;20028;-74
2022/01/22 10:40:40;;;;;;;56.78;31.30;;;8.30;99.90;;;;;;5047251;28;20393;-74
2022/01/22 10:43:33;;;;;;;56.70;28.90;;;8.20;99.90;;;;;;5023606;28;20041;-74
2022/01/22 10:46:02;;;;;;;53.85;27.92;;;8.30;99.90;;;;;;5034650;28;20389;-74
2022/01/22 10:48:28;;;;;;;54.70;29.67;;;8.30;99.90;;;;;;5035878;28;20021;-74
2022/01/22 10:51:01;;;;;;;58.30;30.38;;;8.40;99.90;;;;;;5035321;28;20037;-74
2022/01/22 10:53:43;;;;;;;51.40;26.60;;;8.40;99.90;;;;;;5044715;28;20022;-74
2022/01/22 10:56:14;;;;;;;54.13;28.65;;;8.30;99.90;;;;;;5036263;28;20058;-74
2022/01/22 10:58:54;;;;;;;52.13;28.63;;;8.40;99.90;;;;;;5044260;28;20534;-74
2022/01/22 11:01:21;;;;;;;51.30;28.40;;;8.40;99.90;;;;;;5034535;28;20052;-74
2022/01/22 11:03:47;;;;;;;47.55;26.63;;;8.40;99.90;;;;;;5041167;28;20489;-74
2022/01/22 11:06:27;;;;;;;46.17;26.65;;;8.40;99.90;;;;;;5034378;28;20021;-75
2022/01/22 11:08:54;;;;;;;54.90;29.13;;;8.40;99.90;;;;;;5039935;28;20030;-75
2022/01/22 11:11:19;;;;;;;50.08;26.52;;;8.40;99.90;;;;;;5043016;28;20017;-75
2022/01/22 11:13:45;;;;;;;49.78;26.40;;;8.40;99.90;;;;;;5038060;28;20025;-74
2022/01/22 11:16:11;;;;;;;43.38;27.42;;;8.40;99.90;;;;;;5037420;28;20377;-74
2022/01/22 11:18:43;;;;;;;53.70;27.65;;;8.40;99.90;;;;;;5037125;28;20029;-74
2022/01/22 11:21:10;;;;;;;52.40;27.98;;;8.50;99.90;;;;;;5038456;28;20454;-75
2022/01/22 11:23:35;;;;;;;48.33;25.60;;;8.50;99.90;;;;;;5035382;28;20018;-74
2022/01/22 11:26:02;;;;;;;51.55;27.63;;;8.40;99.90;;;;;;5035026;28;20091;-74
2022/01/22 11:28:29;;;;;;;56.65;27.40;;;8.40;99.90;;;;;;5040306;28;20083;-74
2022/01/22 11:30:57;;;;;;;50.92;27.90;;;8.50;99.90;;;;;;5030889;28;20026;-75
2022/01/22 11:33:25;;;;;;;46.70;27.58;;;8.40;99.90;;;;;;5033843;28;20028;-75
2022/01/22 11:36:03;;;;;;;51.25;29.17;;;8.50;99.90;;;;;;5047409;28;20033;-75
2022/01/22 11:38:33;;;;;;;53.75;28.02;;;8.50;99.90;;;;;;5040652;28;20029;-75
2022/01/22 11:41:21;;;;;;;53.17;27.50;;;8.50;99.90;;;;;;5037791;28;20025;-74
2022/01/22 11:44:12;;;;;;;51.20;29.17;;;8.50;99.90;;;;;;5037228;28;20219;-75
2022/01/22 11:46:45;;;;;;;54.22;28.05;;;8.50;99.90;;;;;;5034658;28;20037;-75
2022/01/22 11:49:30;;;;;;;56.20;29.23;;;8.50;99.90;;;;;;5044724;28;20025;-75
2022/01/22 11:52:07;;;;;;;48.08;27.73;;;8.50;99.90;;;;;;5035237;28;20026;-74
2022/01/22 11:54:53;;;;;;;50.03;27.05;;;8.50;99.90;;;;;;5040592;28;20037;-75
2022/01/22 11:57:19;;;;;;;51.08;28.98;;;8.40;99.90;;;;;;5034355;28;20084;-75
2022/01/22 11:59:46;;;;;;;48.20;27.95;;;8.40;99.90;;;;;;5035264;28;20029;-74
2022/01/22 12:02:14;;;;;;;57.22;26.88;;;8.50;99.90;;;;;;5034837;28;20084;-74
2022/01/22 12:04:39;;;;;;;48.75;27.80;;;8.50;99.90;;;;;;5037691;28;20021;-75
2022/01/22 12:07:05;;;;;;;46.78;26.98;;;8.50;99.90;;;;;;5042314;28;20140;-75
2022/01/22 12:15:20;;;;;;;44.90;25.80;;;8.50;99.90;;;;;;5038479;28;20117;-75
2022/01/22 12:18:03;;;;;;;44.30;25.55;;;8.50;99.90;;;;;;5043970;28;20069;-75
2022/01/22 12:23:16;;;;;;;49.75;26.40;;;8.60;99.90;;;;;;5043265;28;20041;-75
2022/01/22 12:25:41;;;;;;;53.70;26.70;;;8.60;99.90;;;;;;5043993;28;20061;-75
2022/01/22 12:28:09;;;;;;;48.08;26.95;;;8.60;99.90;;;;;;5044135;28;20131;-75
2022/01/22 12:30:43;;;;;;;45.33;27.65;;;8.50;99.90;;;;;;5039001;28;20465;-74
2022/01/22 12:33:14;;;;;;;52.63;26.90;;;8.50;99.90;;;;;;5038943;28;20048;-74
2022/01/22 12:35:40;;;;;;;42.90;25.45;;;8.50;99.90;;;;;;5043588;28;20017;-73
2022/01/22 12:40:57;;;;;;;53.38;27.30;;;8.40;99.90;;;;;;5046255;28;20033;-75
2022/01/22 12:43:31;;;;;;;45.85;28.30;;;8.40;99.90;;;;;;5039563;28;20037;-74
2022/01/22 12:46:00;;;;;;;50.38;29.35;;;8.30;99.90;;;;;;5040866;28;20033;-74
2022/01/22 12:48:34;;;;;;;59.00;30.42;;;8.30;99.90;;;;;;5045596;28;20083;-75
2022/01/22 12:51:05;;;;;;;61.42;28.40;;;8.40;99.90;;;;;;5043608;28;20090;-75
2022/01/22 12:53:32;;;;;;;48.67;28.55;;;8.40;99.90;;;;;;5044682;28;20036;-75
2022/01/22 12:58:26;;;;;;;53.38;30.98;;;8.30;99.90;;;;;;5043244;28;20552;-74
2022/01/22 13:01:07;;;;;;;55.28;31.85;;;8.40;99.90;;;;;;5041961;28;20065;-76
2022/01/22 13:03:35;;;;;;;58.72;29.45;;;8.40;99.90;;;;;;5038136;28;20457;-75
2022/01/22 13:06:02;;;;;;;54.63;28.27;;;8.40;99.90;;;;;;5041640;28;20112;-75
2022/01/22 13:08:29;;;;;;;49.17;29.88;;;8.40;99.90;;;;;;5043606;28;20064;-74
2022/01/22 13:10:58;;;;;;;48.38;29.17;;;8.40;99.90;;;;;;5036577;28;20036;-76
2022/01/22 13:13:24;;;;;;;59.85;32.00;;;8.50;99.90;;;;;;5041365;28;20013;-76
2022/01/22 13:16:07;;;;;;;55.25;30.50;;;8.40;99.90;;;;;;5039922;28;20029;-76
2022/01/22 13:18:58;;;;;;;49.65;29.77;;;8.40;99.90;;;;;;5044137;28;20358;-75
2022/01/22 13:21:32;;;;;;;53.60;28.60;;;8.50;99.90;;;;;;5039157;28;20382;-75
2022/01/22 13:24:11;;;;;;;48.50;26.90;;;8.40;99.90;;;;;;5037160;28;20068;-75
2022/01/22 13:27:13;;;;;;;48.33;27.30;;;8.40;99.90;;;;;;5041538;28;20473;-75
2022/01/22 13:29:42;;;;;;;46.75;26.38;;;8.40;99.90;;;;;;5037410;28;20474;-72
2022/01/22 13:32:19;;;;;;;47.22;25.45;;;8.40;99.90;;;;;;5039469;28;20018;-75
2022/01/22 13:35:13;;;;;;;43.08;23.73;;;8.40;99.90;;;;;;5043077;28;20029;-73
2022/01/22 13:38:33;;;;;;;44.90;25.50;;;8.40;99.90;;;;;;5046571;28;20040;-75
2022/01/22 13:49:25;;;;;;;33.35;20.35;;;8.60;99.90;;;;;;5039108;28;20099;-76
2022/01/22 13:51:51;;;;;;;34.73;22.20;;;8.40;99.90;;;;;;5037084;28;20021;-76
2022/01/22 13:54:17;;;;;;;34.72;22.02;;;8.50;99.90;;;;;;5040510;28;20021;-75
2022/01/22 13:56:55;;;;;;;37.63;21.95;;;8.50;99.90;;;;;;5039030;28;20386;-76
2022/01/22 13:59:24;;;;;;;39.53;20.98;;;8.40;99.90;;;;;;5035688;28;20550;-75
2022/01/22 14:02:07;;;;;;;38.20;22.98;;;8.50;99.90;;;;;;5035411;28;20033;-75
2022/01/22 14:04:46;;;;;;;41.28;24.92;;;8.50;99.90;;;;;;5038444;28;20117;-75
2022/01/22 14:07:25;;;;;;;39.83;24.65;;;8.50;99.90;;;;;;5041932;28;20037;-75
2022/01/22 14:10:13;;;;;;;40.15;24.17;;;8.50;99.90;;;;;;5047419;28;20028;-75
2022/01/22 14:12:44;;;;;;;42.85;25.25;;;8.40;99.90;;;;;;5038467;28;20025;-75
2022/01/22 14:15:14;;;;;;;45.67;27.13;;;8.40;99.90;;;;;;5044337;28;20029;-75
2022/01/22 14:18:08;;;;;;;49.78;28.02;;;8.40;99.90;;;;;;5041241;28;20417;-75
2022/01/22 14:20:36;;;;;;;43.28;24.60;;;8.40;99.90;;;;;;5047497;28;20063;-75
2022/01/22 14:23:04;;;;;;;39.72;25.02;;;8.30;99.90;;;;;;5036394;28;20655;-75
2022/01/22 14:25:31;;;;;;;41.28;24.13;;;8.40;99.90;;;;;;5039942;28;20492;-76
2022/01/22 14:28:17;;;;;;;41.72;24.25;;;8.40;99.90;;;;;;5041964;28;20398;-75
2022/01/22 14:30:45;;;;;;;42.47;25.45;;;8.30;99.90;;;;;;5038369;28;20045;-76
2022/01/22 14:33:13;;;;;;;42.40;27.05;;;8.30;99.90;;;;;;5036246;28;20386;-76
2022/01/22 14:35:40;;;;;;;40.35;25.33;;;8.40;99.90;;;;;;5040841;28;20080;-76
2022/01/22 14:38:23;;;;;;;41.45;26.55;;;8.40;99.90;;;;;;5037231;28;20052;-75
2022/01/22 14:44:09;;;;;;;44.03;26.48;;;8.50;99.90;;;;;;5031080;28;20052;-75
2022/01/22 14:46:52;;;;;;;47.95;27.05;;;8.50;99.90;;;;;;5043550;28;20033;-76
2022/01/22 14:49:22;;;;;;;52.05;28.90;;;8.40;99.90;;;;;;5033334;28;20029;-76
2022/01/22 14:51:47;;;;;;;51.65;29.33;;;8.40;99.90;;;;;;5033045;28;20053;-76